createdAt,value
2022-11-07T00:00:10.693Z,99691.25
2022-11-07T00:02:38.166Z,99695.69
2022-11-07T00:05:08.073Z,99700.91
2022-11-07T00:07:35.515Z,99694.78
2022-11-07T00:10:02.957Z,99702.72
2022-11-07T00:12:30.385Z,99702.72
2022-11-07T00:14:57.822Z,99701.94
2022-11-07T00:17:25.244Z,99703.63
2022-11-07T00:19:52.680Z,99705.47
2022-11-07T00:22:21.437Z,99709.78
2022-11-07T00:24:48.871Z,99709.78
2022-11-07T00:27:16.368Z,99720.38
2022-11-07T00:29:43.905Z,99713.41
2022-11-07T00:32:11.369Z,99721.34
2022-11-07T00:34:38.838Z,99719.44
2022-11-07T00:37:06.262Z,99729.19
2022-11-07T00:39:35.580Z,99729.09
2022-11-07T00:42:03.503Z,99734.41
2022-11-07T00:44:30.943Z,99735.31
2022-11-07T00:46:58.382Z,99731.94
2022-11-07T00:49:25.850Z,99739.88
2022-11-07T00:51:53.265Z,99734.50
2022-11-07T00:54:20.724Z,99722.09
2022-11-07T00:56:49.475Z,99733.53
2022-11-07T00:59:17.009Z,99726.47
2022-11-07T01:01:44.504Z,99744.22
2022-11-07T01:04:39.543Z,99740.81
2022-11-07T01:07:07.309Z,99741.47
2022-11-07T01:09:34.755Z,99736.09
2022-11-07T01:12:03.570Z,99744.22
2022-11-07T01:14:31.050Z,99744.22
2022-11-07T01:16:58.530Z,99743.25
2022-11-07T01:19:26.016Z,99750.47
2022-11-07T01:21:53.448Z,99753.13
2022-11-07T01:24:20.883Z,99752.94
2022-11-07T01:26:48.714Z,99671.81
2022-11-07T01:29:17.897Z,99683.75
2022-11-07T01:31:45.325Z,99705.41
2022-11-07T01:34:12.761Z,99751.97
2022-11-07T01:36:40.234Z,99761.81
2022-11-07T01:39:07.679Z,99755.59
2022-11-07T01:41:36.270Z,99711.50
2022-11-07T01:44:04.692Z,99714.69
2022-11-07T01:46:34.377Z,99657.63
2022-11-07T01:49:05.308Z,99758.22
2022-11-07T01:51:34.232Z,99750.38
2022-11-07T01:54:01.785Z,99754.91
2022-11-07T01:56:29.600Z,99741.66
2022-11-07T01:58:57.060Z,99748.00
2022-11-07T02:01:24.691Z,99747.25
2022-11-07T02:03:53.533Z,99744.59
2022-11-07T02:06:23.422Z,99703.88
2022-11-07T02:08:51.000Z,99741.00
2022-11-07T02:11:18.894Z,99748.84
2022-11-07T02:13:46.772Z,99746.09
2022-11-07T02:16:14.206Z,99762.94
2022-11-07T02:18:42.086Z,99760.28
2022-11-07T02:21:14.401Z,99755.00
2022-11-07T02:23:45.048Z,99710.59
2022-11-07T02:26:13.845Z,99761.25
2022-11-07T02:28:41.331Z,99755.94
2022-11-07T02:31:08.796Z,99760.47
2022-11-07T02:33:36.284Z,99758.69
2022-11-07T02:36:04.672Z,99759.63
2022-11-07T02:38:33.716Z,99764.81
2022-11-07T02:41:02.843Z,99736.53
2022-11-07T02:43:32.324Z,99764.00
2022-11-07T02:46:01.463Z,99764.72
2022-11-07T02:48:30.027Z,99764.09
2022-11-07T02:50:57.539Z,99762.34
2022-11-07T02:53:24.985Z,99753.50
2022-11-07T02:55:52.439Z,99756.97
2022-11-07T02:58:19.960Z,99758.78
2022-11-07T03:00:48.821Z,99754.22
2022-11-07T03:03:17.185Z,99779.97
2022-11-07T03:05:45.058Z,99756.22
2022-11-07T03:08:12.494Z,99761.63
2022-11-07T03:10:39.976Z,99757.25
2022-11-07T03:13:07.408Z,99773.13
2022-11-07T03:15:34.886Z,99762.53
2022-11-07T03:18:03.728Z,99773.81
2022-11-07T03:20:31.285Z,99764.53
2022-11-07T03:22:58.778Z,99775.59
2022-11-07T03:25:26.247Z,99768.59
2022-11-07T03:27:53.693Z,99762.34
2022-11-07T03:30:21.371Z,99774.75
2022-11-07T03:32:48.931Z,99767.47
2022-11-07T03:35:17.882Z,99765.19
2022-11-07T03:37:46.153Z,99758.09
2022-11-07T03:40:13.804Z,99769.38
2022-11-07T03:42:41.293Z,99776.56
2022-11-07T03:45:09.904Z,99779.78
2022-11-07T03:47:37.406Z,99686.72
2022-11-07T03:50:05.296Z,99776.38
2022-11-07T03:52:34.058Z,99774.66
2022-11-07T03:55:01.605Z,99722.19
2022-11-07T03:57:29.050Z,99779.97
2022-11-07T03:59:56.533Z,99777.41
2022-11-07T04:02:24.078Z,99782.88
2022-11-07T04:04:51.677Z,99786.09
2022-11-07T04:07:19.132Z,99777.59
2022-11-07T04:09:47.895Z,99785.25
2022-11-07T04:12:33.123Z,99789.88
2022-11-07T04:15:18.321Z,99788.84
2022-11-07T04:17:45.799Z,99792.34
2022-11-07T04:20:13.259Z,99795.09
2022-11-07T04:22:40.708Z,99799.59
2022-11-07T04:25:10.737Z,99791.56
2022-11-07T04:27:43.201Z,99799.59
2022-11-07T04:30:29.526Z,99801.16
2022-11-07T04:32:58.085Z,99738.91
2022-11-07T04:35:26.737Z,99745.72
2022-11-07T04:37:54.161Z,99800.28
2022-11-07T04:40:22.981Z,99801.81
2022-11-07T04:42:50.554Z,99785.63
2022-11-07T04:45:18.391Z,99802.94
2022-11-07T04:47:45.867Z,99811.94
2022-11-07T04:50:14.203Z,99804.06
2022-11-07T04:52:41.737Z,99728.88
2022-11-07T04:55:10.204Z,99805.84
2022-11-07T04:57:38.992Z,99797.22
2022-11-07T05:00:07.917Z,99804.91
2022-11-07T05:02:35.419Z,99801.44
2022-11-07T05:05:02.949Z,99803.22
2022-11-07T05:07:30.396Z,99801.59
2022-11-07T05:10:00.645Z,99809.38
2022-11-07T05:12:28.170Z,99798.97
2022-11-07T05:14:56.964Z,99802.25
2022-11-07T05:17:27.839Z,99799.97
2022-11-07T05:19:55.688Z,99805.09
2022-11-07T05:22:40.640Z,99803.31
2022-11-07T05:25:09.441Z,99796.31
2022-11-07T05:27:36.870Z,99808.50
2022-11-07T05:30:06.480Z,99804.91
2022-11-07T05:32:37.886Z,99724.72
2022-11-07T05:35:05.858Z,99798.88
2022-11-07T05:37:33.463Z,99797.31
2022-11-07T05:40:01.004Z,99805.09
2022-11-07T05:42:28.447Z,99808.50
2022-11-07T05:44:55.932Z,99799.69
2022-11-07T05:47:24.718Z,99815.66
2022-11-07T05:49:52.192Z,99810.38
2022-11-07T05:52:19.643Z,99814.84
2022-11-07T05:54:47.096Z,99817.41
2022-11-07T05:57:14.551Z,99826.16
2022-11-07T05:59:42.007Z,99820.78
2022-11-07T06:02:09.610Z,99828.63
2022-11-07T06:04:38.868Z,99821.66
2022-11-07T06:07:06.421Z,99834.03
2022-11-07T06:09:33.936Z,99829.59
2022-11-07T06:12:03.692Z,99824.22
2022-11-07T06:14:31.226Z,99834.03
2022-11-07T06:16:58.692Z,99840.19
2022-11-07T06:19:26.162Z,99830.53
2022-11-07T06:21:54.936Z,99839.22
2022-11-07T06:24:22.369Z,99835.84
2022-11-07T06:26:49.801Z,99836.69
2022-11-07T06:29:17.510Z,99841.22
2022-11-07T06:31:44.955Z,99834.47
2022-11-07T06:34:12.415Z,99841.31
2022-11-07T06:36:39.883Z,99831.75
2022-11-07T06:39:08.684Z,99850.88
2022-11-07T06:41:36.157Z,99836.38
2022-11-07T06:44:03.904Z,99851.72
2022-11-07T06:46:31.383Z,99856.94
2022-11-07T06:48:58.835Z,99861.38
2022-11-07T06:51:26.287Z,99855.13
2022-11-07T06:53:54.189Z,99860.25
2022-11-07T06:56:23.002Z,99866.41
2022-11-07T06:58:50.591Z,99856.66
2022-11-07T07:01:18.430Z,99821.81
2022-11-07T07:03:46.292Z,99872.38
2022-11-07T07:06:14.809Z,99830.66
2022-11-07T07:08:42.275Z,99852.91
2022-11-07T07:11:10.612Z,99806.13
2022-11-07T07:13:39.505Z,99877.69
2022-11-07T07:16:07.468Z,99880.72
2022-11-07T07:18:35.019Z,99877.97
2022-11-07T07:21:07.124Z,99837.38
2022-11-07T07:23:34.737Z,99884.91
2022-11-07T07:26:02.612Z,99886.16
2022-11-07T07:28:30.101Z,99898.25
2022-11-07T07:31:09.044Z,99896.25
2022-11-07T07:33:36.668Z,99893.41
2022-11-07T07:36:04.216Z,99896.56
2022-11-07T07:38:31.876Z,99892.78
2022-11-07T07:40:59.745Z,99892.50
2022-11-07T07:43:27.350Z,99801.63
2022-11-07T07:45:54.842Z,99893.56
2022-11-07T07:48:23.629Z,99890.91
2022-11-07T07:50:51.086Z,99892.25
2022-11-07T07:53:18.960Z,99855.41
2022-11-07T07:55:46.598Z,99902.75
2022-11-07T07:58:14.159Z,99805.16
2022-11-07T08:00:41.744Z,99890.53
2022-11-07T08:03:10.058Z,99885.50
2022-11-07T08:05:38.997Z,99809.09
2022-11-07T08:08:07.045Z,99850.75
2022-11-07T08:10:43.055Z,99893.09
2022-11-07T08:13:10.873Z,99897.63
2022-11-07T08:15:38.372Z,99889.00
2022-11-07T08:18:06.003Z,99890.53
2022-11-07T08:20:33.462Z,99891.38
2022-11-07T08:23:03.102Z,99900.84
2022-11-07T08:25:30.610Z,99907.00
2022-11-07T08:27:58.051Z,99901.78
2022-11-07T08:30:26.779Z,99906.06
2022-11-07T08:32:54.229Z,99899.91
2022-11-07T08:35:21.705Z,99905.19
2022-11-07T08:37:49.417Z,99906.91
2022-11-07T08:40:18.392Z,99907.75
2022-11-07T08:42:45.832Z,99903.31
2022-11-07T08:45:13.318Z,99904.06
2022-11-07T08:47:40.775Z,99906.34
2022-11-07T08:50:08.816Z,99907.88
2022-11-07T08:52:36.454Z,99904.00
2022-11-07T08:55:04.047Z,99896.16
2022-11-07T08:57:32.828Z,99900.91
2022-11-07T09:00:00.321Z,99897.66
2022-11-07T09:03:08.389Z,99895.66
2022-11-07T09:05:15.491Z,99895.94
2022-11-07T09:07:42.944Z,99883.53
2022-11-07T09:10:11.628Z,99891.31
2022-11-07T09:12:46.152Z,99890.94
2022-11-07T09:15:13.624Z,99897.06
2022-11-07T09:17:41.166Z,99882.97
2022-11-07T09:20:09.680Z,99895.47
2022-11-07T09:22:37.145Z,99849.53
2022-11-07T09:25:04.858Z,99895.84
2022-11-07T09:27:32.339Z,99881.63
2022-11-07T09:30:01.114Z,99894.78
2022-11-07T09:32:44.641Z,99856.53
2022-11-07T09:35:13.055Z,99811.50
2022-11-07T09:37:40.669Z,99913.66
2022-11-07T09:40:11.890Z,99905.88
2022-11-07T09:42:43.128Z,99900.88
2022-11-07T09:45:13.070Z,99845.66
2022-11-07T09:47:42.150Z,99896.91
2022-11-07T09:50:13.376Z,99893.97
2022-11-07T09:52:42.996Z,99907.81
2022-11-07T09:55:15.759Z,99913.22
2022-11-07T09:57:43.188Z,99905.25
2022-11-07T10:00:16.447Z,99855.22
2022-11-07T10:02:45.111Z,99917.94
2022-11-07T10:05:14.815Z,99919.72
2022-11-07T10:07:46.636Z,99926.84
2022-11-07T10:10:16.737Z,99886.75
2022-11-07T10:12:50.431Z,99924.38
2022-11-07T10:15:21.602Z,99940.22
2022-11-07T10:17:54.109Z,99934.03
2022-11-07T10:20:27.611Z,99935.00
2022-11-07T10:23:01.262Z,99945.50
2022-11-07T10:25:30.218Z,99946.16
2022-11-07T10:28:09.111Z,99880.38
2022-11-07T10:30:37.892Z,99951.84
2022-11-07T10:33:07.045Z,99956.31
2022-11-07T10:35:35.316Z,99932.53
2022-11-07T10:38:04.627Z,99939.53
2022-11-07T10:40:34.452Z,99890.06
2022-11-07T10:43:02.205Z,99932.16
2022-11-07T10:45:29.715Z,99931.78
2022-11-07T10:47:59.364Z,99889.13
2022-11-07T10:50:26.910Z,99927.50
2022-11-07T10:52:55.307Z,99935.66
2022-11-07T10:55:23.007Z,99946.16
2022-11-07T10:57:52.978Z,99873.78
2022-11-07T11:00:25.605Z,99936.41
2022-11-07T11:02:53.398Z,99935.72
2022-11-07T11:05:27.351Z,99930.22
2022-11-07T11:07:56.073Z,99926.03
2022-11-07T11:10:24.594Z,99946.97
2022-11-07T11:12:52.042Z,99934.50
2022-11-07T11:15:20.468Z,99873.88
2022-11-07T11:17:48.004Z,99930.63
2022-11-07T11:20:31.900Z,99935.13
2022-11-07T11:23:00.110Z,99953.91
2022-11-07T11:25:27.540Z,99926.47
2022-11-07T11:27:57.239Z,99936.75
2022-11-07T11:30:24.687Z,99926.53
2022-11-07T11:32:53.424Z,99926.00
2022-11-07T11:35:31.541Z,99927.22
2022-11-07T11:38:01.494Z,99936.44
2022-11-07T11:40:28.957Z,99888.34
2022-11-07T11:42:59.608Z,99861.63
2022-11-07T11:45:31.974Z,99921.00
2022-11-07T11:48:01.252Z,99923.66
2022-11-07T11:50:37.849Z,99883.06
2022-11-07T11:53:05.420Z,99911.75
2022-11-07T11:55:37.224Z,99912.75
2022-11-07T11:58:11.053Z,99920.53
2022-11-07T12:00:40.008Z,99920.00
2022-11-07T12:03:28.276Z,99928.16
2022-11-07T12:06:17.741Z,99921.03
2022-11-07T12:09:18.292Z,99929.28
2022-11-07T12:11:52.439Z,99925.03
2022-11-07T12:14:42.964Z,99883.78
2022-11-07T12:17:11.481Z,99888.63
2022-11-07T12:19:43.502Z,99931.91
2022-11-07T12:22:15.233Z,99933.81
2022-11-07T12:24:45.113Z,99883.16
2022-11-07T12:27:20.357Z,99927.38
2022-11-07T12:30:02.797Z,99922.06
2022-11-07T12:32:38.113Z,99929.84
2022-11-07T12:35:17.190Z,99930.56
2022-11-07T12:37:53.397Z,99898.09
2022-11-07T12:40:28.833Z,99941.47
2022-11-07T12:43:03.168Z,99945.81
2022-11-07T12:45:40.654Z,99943.91
2022-11-07T12:48:20.203Z,99927.72
2022-11-07T12:50:48.769Z,99946.56
2022-11-07T12:53:24.864Z,99948.63
2022-11-07T12:55:53.369Z,99919.31
2022-11-07T12:58:22.943Z,99891.00
2022-11-07T13:00:50.615Z,99949.63
2022-11-07T13:03:28.536Z,99937.03
2022-11-07T13:06:03.555Z,99938.94
2022-11-07T13:08:35.201Z,99962.25
2022-11-07T13:11:04.629Z,99934.78
2022-11-07T13:13:36.636Z,99978.34
2022-11-07T13:16:16.239Z,99971.16
2022-11-07T13:18:43.810Z,99966.66
2022-11-07T13:21:11.305Z,99971.03
2022-11-07T13:23:40.305Z,99979.13
2022-11-07T13:26:32.546Z,99978.25
2022-11-07T13:28:59.024Z,99986.22
2022-11-07T13:31:36.481Z,99982.69
2022-11-07T13:34:11.702Z,99981.78
2022-11-07T13:36:39.188Z,99984.53
2022-11-07T13:39:07.957Z,99912.06
2022-11-07T13:41:35.409Z,99988.22
2022-11-07T13:44:03.798Z,99987.28
2022-11-07T13:46:32.289Z,99910.16
2022-11-07T13:49:01.589Z,99970.31
2022-11-07T13:51:32.109Z,99986.72
2022-11-07T13:54:05.120Z,99962.28
2022-11-07T13:56:37.575Z,99977.34
2022-11-07T13:59:05.170Z,99971.47
2022-11-07T14:01:41.264Z,99984.91
2022-11-07T14:04:16.124Z,99984.91
2022-11-07T14:06:43.637Z,99946.66
2022-11-07T14:09:14.544Z,99979.13
2022-11-07T14:11:43.323Z,99935.44
2022-11-07T14:14:10.840Z,99978.94
2022-11-07T14:16:38.279Z,99978.38
2022-11-07T14:19:07.096Z,99973.91
2022-11-07T14:21:35.614Z,99968.50
2022-11-07T14:24:03.071Z,99969.38
2022-11-07T14:26:32.659Z,99924.16
2022-11-07T14:29:01.673Z,99971.47
2022-11-07T14:31:30.229Z,99975.28
2022-11-07T14:33:58.517Z,99961.91
2022-11-07T14:36:26.084Z,99963.50
2022-11-07T14:38:54.721Z,99979.81
2022-11-07T14:41:22.281Z,99979.03
2022-11-07T14:43:49.937Z,99978.22
2022-11-07T14:46:21.032Z,99984.34
2022-11-07T14:48:49.542Z,99984.34
2022-11-07T14:51:17.885Z,99984.44
2022-11-07T14:53:50.796Z,99980.09
2022-11-07T14:56:18.430Z,99985.41
2022-11-07T14:58:45.850Z,99984.44
2022-11-07T15:01:14.711Z,99928.06
2022-11-07T15:03:53.206Z,99942.09
2022-11-07T15:06:22.540Z,99940.47
2022-11-07T15:08:56.644Z,99985.41
2022-11-07T15:11:26.735Z,99940.00
2022-11-07T15:13:54.040Z,99980.28
2022-11-07T15:16:22.736Z,99981.44
2022-11-07T15:18:58.558Z,99938.69
2022-11-07T15:21:28.249Z,99942.47
2022-11-07T15:23:55.751Z,99986.56
2022-11-07T15:26:24.051Z,99994.34
2022-11-07T15:28:52.017Z,99992.50
2022-11-07T15:31:21.031Z,99988.25
2022-11-07T15:33:48.527Z,99986.47
2022-11-07T15:36:17.373Z,99989.97
2022-11-07T15:38:44.856Z,99971.84
2022-11-07T15:41:12.556Z,99991.78
2022-11-07T15:43:40.022Z,99994.53
2022-11-07T15:46:13.239Z,99992.81
2022-11-07T15:48:41.465Z,99991.09
2022-11-07T15:51:09.492Z,99993.75
2022-11-07T15:53:38.272Z,99996.41
2022-11-07T15:56:05.905Z,99995.66
2022-11-07T15:58:33.365Z,99992.91
2022-11-07T16:01:01.038Z,99987.50
2022-11-07T16:03:28.628Z,99994.53
2022-11-07T16:05:58.433Z,99921.81
2022-11-07T16:08:25.875Z,99995.38
2022-11-07T16:10:55.836Z,99986.47
2022-11-07T16:13:23.284Z,99988.25
2022-11-07T16:15:52.000Z,99997.91
2022-11-07T16:18:21.141Z,99991.78
2022-11-07T16:20:48.983Z,99963.03
2022-11-07T16:23:18.038Z,99992.44
2022-11-07T16:25:46.350Z,100005.06
2022-11-07T16:28:24.200Z,100005.78
2022-11-07T16:30:51.779Z,100004.09
2022-11-07T16:33:19.221Z,99925.91
2022-11-07T16:35:48.688Z,100011.97
2022-11-07T16:38:17.246Z,99947.88
2022-11-07T16:40:45.041Z,100007.53
2022-11-07T16:43:12.496Z,100011.97
2022-11-07T16:45:46.480Z,100006.66
2022-11-07T16:48:19.182Z,100005.78
2022-11-07T16:50:46.731Z,100009.41
2022-11-07T16:53:14.288Z,99960.94
2022-11-07T16:55:41.836Z,100002.59
2022-11-07T16:58:10.769Z,100012.81
2022-11-07T17:00:38.206Z,100015.56
2022-11-07T17:03:07.055Z,100013.75
2022-11-07T17:05:34.552Z,100017.47
2022-11-07T17:08:03.582Z,100014.81
2022-11-07T17:10:31.026Z,100026.19
2022-11-07T17:12:58.482Z,100018.31
2022-11-07T17:15:25.932Z,100014.13
2022-11-07T17:17:58.976Z,100024.47
2022-11-07T17:20:49.994Z,100012.34
2022-11-07T17:23:16.808Z,100010.84
2022-11-07T17:25:47.407Z,100020.31
2022-11-07T17:28:15.211Z,100021.28
2022-11-07T17:30:42.788Z,100025.72
2022-11-07T17:33:10.251Z,100027.50
2022-11-07T17:35:38.990Z,100031.88
2022-11-07T17:38:06.665Z,100032.81
2022-11-07T17:40:34.612Z,100026.69
2022-11-07T17:43:02.145Z,99966.19
2022-11-07T17:45:29.651Z,100032.91
2022-11-07T17:47:57.103Z,100030.25
2022-11-07T17:50:24.611Z,99973.56
2022-11-07T17:52:53.532Z,100030.34
2022-11-07T17:55:21.509Z,100032.19
2022-11-07T17:57:48.980Z,100047.25
2022-11-07T18:00:17.667Z,100036.63
2022-11-07T18:02:45.769Z,100040.13
2022-11-07T18:05:16.606Z,100021.06
2022-11-07T18:07:44.286Z,100039.28
2022-11-07T18:10:13.603Z,99999.53
2022-11-07T18:12:41.059Z,100045.63
2022-11-07T18:15:11.786Z,99976.47
2022-11-07T18:17:39.813Z,100039.47
2022-11-07T18:20:09.149Z,100040.31
2022-11-07T18:22:37.449Z,100041.25
2022-11-07T18:25:06.196Z,100044.88
2022-11-07T18:27:34.977Z,100042.22
2022-11-07T18:30:02.918Z,100010.03
2022-11-07T18:32:35.729Z,100045.81
2022-11-07T18:35:04.698Z,100051.03
2022-11-07T18:37:32.159Z,100052.00
2022-11-07T18:39:59.614Z,100039.66
2022-11-07T18:42:27.056Z,100041.56
2022-11-07T18:44:55.800Z,100041.56
2022-11-07T18:47:23.238Z,100051.28
2022-11-07T18:49:56.600Z,100052.19
2022-11-07T18:52:24.692Z,100053.06
2022-11-07T18:54:52.245Z,100045.97
2022-11-07T18:57:19.717Z,100014.84
2022-11-07T18:59:47.341Z,99977.81
2022-11-07T19:02:17.151Z,100046.94
2022-11-07T19:04:44.821Z,100045.22
2022-11-07T19:07:12.324Z,100050.41
2022-11-07T19:09:39.802Z,99985.50
2022-11-07T19:12:07.884Z,100042.56
2022-11-07T19:14:35.556Z,100043.41
2022-11-07T19:17:03.004Z,100047.03
2022-11-07T19:19:32.060Z,100028.91
2022-11-07T19:21:59.512Z,100045.31
2022-11-07T19:24:26.955Z,100048.03
2022-11-07T19:26:54.425Z,100050.69
2022-11-07T19:29:21.887Z,100045.50
2022-11-07T19:31:49.394Z,100049.09
2022-11-07T19:34:17.950Z,100056.19
2022-11-07T19:36:46.707Z,100054.41
2022-11-07T19:39:14.153Z,100062.47
2022-11-07T19:41:41.601Z,100061.59
2022-11-07T19:44:09.211Z,100058.94
2022-11-07T19:46:36.650Z,100059.91
2022-11-07T19:49:04.095Z,100058.19
2022-11-07T19:51:31.541Z,100055.56
2022-11-07T19:54:00.778Z,100055.56
2022-11-07T19:56:28.964Z,100052.03
2022-11-07T19:58:56.426Z,100048.59
2022-11-07T20:01:24.984Z,100057.44
2022-11-07T20:03:52.830Z,100058.38
2022-11-07T20:06:21.591Z,100059.22
2022-11-07T20:08:49.077Z,100061.97
2022-11-07T20:11:18.883Z,100028.94
2022-11-07T20:13:46.339Z,100061.22
2022-11-07T20:16:13.876Z,100067.38
2022-11-07T20:18:41.504Z,100068.31
2022-11-07T20:21:12.130Z,100021.19
2022-11-07T20:23:39.683Z,100070.13
2022-11-07T20:26:07.539Z,100066.81
2022-11-07T20:28:36.330Z,100060.47
2022-11-07T20:31:07.536Z,100064.81
2022-11-07T20:33:34.999Z,100062.16
2022-11-07T20:36:03.189Z,100038.81
2022-11-07T20:38:30.687Z,100037.50
2022-11-07T20:40:58.200Z,100056.19
2022-11-07T20:43:25.828Z,100054.38
2022-11-07T20:45:54.683Z,100052.59
2022-11-07T20:48:22.523Z,100056.09
2022-11-07T20:50:49.974Z,100052.88
2022-11-07T20:53:17.916Z,100054.47
2022-11-07T20:55:45.562Z,100052.78
2022-11-07T20:58:13.060Z,100055.34
2022-11-07T21:00:41.135Z,100043.84
2022-11-07T21:03:13.143Z,100058.94
2022-11-07T21:05:40.565Z,100051.44
2022-11-07T21:08:08.012Z,100058.06
2022-11-07T21:10:35.470Z,100068.78
2022-11-07T21:13:02.995Z,100067.81
2022-11-07T21:15:30.431Z,100067.81
2022-11-07T21:17:57.870Z,100076.66
2022-11-07T21:20:26.612Z,100088.22
2022-11-07T21:22:54.084Z,100081.19
2022-11-07T21:25:21.744Z,100080.25
2022-11-07T21:27:49.207Z,100077.59
2022-11-07T21:30:17.106Z,100077.59
2022-11-07T21:32:44.581Z,100078.44
2022-11-07T21:35:13.211Z,100013.22
2022-11-07T21:37:42.093Z,100077.69
2022-11-07T21:40:10.734Z,100068.88
2022-11-07T21:42:38.654Z,100067.09
2022-11-07T21:45:06.749Z,100068.00
2022-11-07T21:47:34.353Z,100067.38
2022-11-07T21:50:09.454Z,100065.44
2022-11-07T21:52:46.790Z,100068.00
2022-11-07T21:55:14.408Z,100061.88
2022-11-07T21:57:42.389Z,100062.78
2022-11-07T22:00:11.612Z,100062.69
2022-11-07T22:02:39.281Z,99985.13
2022-11-07T22:05:07.878Z,100068.00
2022-11-07T22:07:35.772Z,100060.16
2022-11-07T22:10:05.169Z,100057.50
2022-11-07T22:12:32.712Z,100066.31
2022-11-07T22:15:00.386Z,100065.44
2022-11-07T22:17:28.043Z,100064.63
2022-11-07T22:19:55.538Z,100057.59
2022-11-07T22:22:22.967Z,100053.13
2022-11-07T22:24:50.442Z,100054.00
2022-11-07T22:27:19.234Z,100057.59
2022-11-07T22:29:46.870Z,100052.47
2022-11-07T22:32:14.366Z,100055.88
2022-11-07T22:34:41.887Z,100043.75
2022-11-07T22:37:09.336Z,100049.72
2022-11-07T22:39:36.790Z,100057.66
2022-11-07T22:42:04.425Z,100055.03
2022-11-07T22:44:33.229Z,100056.84
2022-11-07T22:47:00.708Z,100055.03
2022-11-07T22:49:28.160Z,100055.97
2022-11-07T22:51:55.623Z,100056.94
2022-11-07T22:54:23.117Z,100015.94
2022-11-07T22:56:50.541Z,100055.88
2022-11-07T22:59:18.003Z,100055.97
2022-11-07T23:01:46.820Z,100043.56
2022-11-07T23:04:15.094Z,100042.47
2022-11-07T23:06:42.606Z,100052.47
2022-11-07T23:09:12.256Z,99986.91
2022-11-07T23:11:45.862Z,100050.75
2022-11-07T23:14:14.578Z,100050.09
2022-11-07T23:16:44.034Z,100016.97
2022-11-07T23:19:13.755Z,100011.75
2022-11-07T23:21:41.259Z,100062.25
2022-11-07T23:24:08.947Z,100057.84
2022-11-07T23:26:36.436Z,100056.06
2022-11-07T23:29:10.094Z,100063.06
2022-11-07T23:31:38.288Z,100065.81
2022-11-07T23:36:29.941Z,100066.78
2022-11-07T23:38:57.753Z,100038.31
2022-11-07T23:41:25.255Z,100015.28
2022-11-07T23:43:52.977Z,100075.59
2022-11-07T23:46:38.333Z,100061.47
2022-11-07T23:49:23.610Z,100069.41
2022-11-07T23:51:52.416Z,100056.25
2022-11-07T23:54:37.732Z,100018.78
2022-11-07T23:57:05.297Z,100010.16
2022-11-07T23:59:50.612Z,100060.59
